Time;durP1;ratioP1;P1;durP2;ratioP2;P2;SDS_P1;SDS_P2;PMS_P1;PMS_P2;Temp;Humidity;BMP_temperature;BMP_pressure;BME280_temperature;BME280_humidity;BME280_pressure;Samples;Min_cycle;Max_cycle;Signal;HPM_P1;HPM_P2
2021/08/10 00:01:17;;;;;;;4.15;1.70;;;17.20;97.40;;;;;;5124693;27;20470;-78
2021/08/10 00:03:44;;;;;;;3.70;1.60;;;17.10;97.30;;;;;;5120382;27;20105;-76
2021/08/10 00:06:11;;;;;;;3.97;1.75;;;17.10;97.40;;;;;;5125509;27;20130;-75
2021/08/10 00:08:38;;;;;;;4.22;1.90;;;17.10;97.60;;;;;;5127475;27;20035;-80
2021/08/10 00:11:07;;;;;;;3.47;1.60;;;17.10;97.70;;;;;;5126401;27;20639;-77
2021/08/10 00:13:36;;;;;;;3.40;1.40;;;17.10;97.70;;;;;;5122322;27;20615;-78
2021/08/10 00:16:03;;;;;;;5.15;1.83;;;17.10;97.80;;;;;;5137655;27;20040;-79
2021/08/10 00:18:30;;;;;;;4.30;1.80;;;17.10;97.90;;;;;;5125894;27;20457;-78
2021/08/10 00:20:57;;;;;;;3.78;1.90;;;17.20;97.90;;;;;;5121951;27;20137;-78
2021/08/10 00:23:24;;;;;;;4.60;1.60;;;17.20;97.80;;;;;;5122980;27;20047;-79
2021/08/10 00:25:51;;;;;;;4.82;1.92;;;17.20;97.70;;;;;;5122663;27;20493;-79
2021/08/10 00:28:19;;;;;;;3.92;1.70;;;17.20;97.80;;;;;;5129658;27;20130;-77
2021/08/10 00:30:47;;;;;;;3.90;1.67;;;17.20;97.60;;;;;;5117277;27;20138;-77
2021/08/10 00:33:15;;;;;;;3.95;1.67;;;17.20;97.60;;;;;;5122223;27;20134;-78
2021/08/10 00:35:42;;;;;;;5.32;1.70;;;17.10;97.60;;;;;;5121818;27;20126;-78
2021/08/10 00:38:10;;;;;;;3.92;2.00;;;17.10;97.60;;;;;;5114897;27;20477;-79
2021/08/10 00:40:40;;;;;;;4.28;1.65;;;17.00;97.60;;;;;;5129568;27;20086;-79
2021/08/10 00:43:30;;;;;;;4.05;1.63;;;17.00;97.70;;;;;;5122517;27;20137;-78
2021/08/10 00:46:00;;;;;;;4.75;1.73;;;16.90;98.00;;;;;;5129085;27;20495;-78
2021/08/10 00:48:27;;;;;;;3.88;2.08;;;16.90;97.90;;;;;;5130016;27;20456;-80
2021/08/10 00:50:54;;;;;;;4.13;1.80;;;16.80;98.10;;;;;;5121987;27;20130;-77
2021/08/10 00:53:22;;;;;;;3.33;1.60;;;16.80;97.80;;;;;;5123865;27;20130;-77
2021/08/10 00:55:49;;;;;;;3.53;1.52;;;16.70;97.70;;;;;;5120128;27;20044;-78
2021/08/10 00:58:16;;;;;;;4.47;1.73;;;16.60;97.80;;;;;;5129495;27;20126;-79
2021/08/10 01:00:44;;;;;;;6.13;1.80;;;16.60;97.90;;;;;;5115069;28;20481;-78
2021/08/10 01:03:13;;;;;;;4.65;1.77;;;16.50;98.10;;;;;;5121479;27;20075;-79
2021/08/10 01:05:48;;;;;;;3.50;1.55;;;16.50;98.30;;;;;;5125449;27;20483;-77
2021/08/10 01:08:28;;;;;;;3.50;1.58;;;16.40;98.50;;;;;;5117361;27;20405;-78
2021/08/10 01:11:05;;;;;;;4.50;1.90;;;16.40;98.70;;;;;;5126128;27;20126;-78
2021/08/10 01:13:39;;;;;;;4.03;1.85;;;16.50;98.90;;;;;;5117350;27;20560;-80
2021/08/10 01:16:21;;;;;;;3.72;1.65;;;16.50;98.90;;;;;;5117263;27;20085;-80
2021/08/10 01:18:58;;;;;;;3.55;1.65;;;16.50;98.90;;;;;;5126849;28;20131;-78
2021/08/10 01:21:30;;;;;;;4.72;1.92;;;16.50;99.00;;;;;;5123693;27;20050;-78
2021/08/10 01:24:04;;;;;;;4.50;1.90;;;16.50;98.90;;;;;;5125068;28;20560;-80
2021/08/10 01:26:45;;;;;;;4.57;1.90;;;16.50;98.80;;;;;;5114102;27;20123;-78
2021/08/10 01:29:22;;;;;;;4.25;2.00;;;16.50;98.70;;;;;;5122953;27;20778;-80
2021/08/10 01:31:52;;;;;;;3.65;1.58;;;16.50;98.90;;;;;;5119374;28;20127;-78
2021/08/10 01:34:26;;;;;;;4.25;1.90;;;16.50;98.90;;;;;;5124214;28;20392;-80
2021/08/10 01:36:58;;;;;;;4.60;1.80;;;16.40;98.90;;;;;;5126026;28;20046;-80
2021/08/10 01:39:28;;;;;;;4.28;1.70;;;16.40;98.90;;;;;;5124275;27;20123;-80
2021/08/10 01:41:57;;;;;;;5.13;1.67;;;16.40;99.10;;;;;;5122008;27;20075;-79
2021/08/10 01:44:26;;;;;;;3.60;1.70;;;16.30;99.20;;;;;;5127790;27;20138;-79
2021/08/10 01:46:56;;;;;;;3.67;1.70;;;16.30;99.60;;;;;;5130055;27;20055;-78
2021/08/10 01:49:24;;;;;;;3.55;1.60;;;16.40;99.40;;;;;;5131687;27;20130;-78
2021/08/10 01:51:52;;;;;;;4.25;1.67;;;16.40;99.50;;;;;;5130216;27;20039;-79
2021/08/10 01:54:20;;;;;;;4.03;1.63;;;16.40;99.50;;;;;;5125752;27;20126;-79
2021/08/10 01:56:48;;;;;;;3.47;1.83;;;16.40;99.40;;;;;;5125249;27;20122;-79
2021/08/10 01:59:17;;;;;;;3.28;1.77;;;16.50;99.50;;;;;;5132962;27;20130;-78
2021/08/10 02:01:45;;;;;;;4.18;1.83;;;16.50;99.40;;;;;;5124971;27;20130;-77
2021/08/10 02:04:18;;;;;;;3.47;1.60;;;16.50;99.40;;;;;;5124783;27;20468;-76
2021/08/10 02:06:47;;;;;;;3.15;1.60;;;16.50;99.70;;;;;;5125140;27;20043;-80
2021/08/10 02:09:18;;;;;;;3.63;1.90;;;16.50;99.40;;;;;;5132790;27;20122;-79
2021/08/10 02:11:47;;;;;;;4.28;1.80;;;16.50;99.30;;;;;;5122889;27;20065;-79
2021/08/10 02:14:15;;;;;;;3.88;1.80;;;16.50;99.10;;;;;;5124426;27;20126;-78
2021/08/10 02:16:43;;;;;;;4.20;1.73;;;16.50;99.00;;;;;;5123792;27;20131;-78
2021/08/10 02:19:10;;;;;;;3.78;1.90;;;16.40;98.90;;;;;;5132578;27;20043;-79
2021/08/10 02:21:44;;;;;;;3.38;1.70;;;16.30;98.90;;;;;;5124730;27;20146;-80
2021/08/10 02:24:20;;;;;;;3.95;2.03;;;16.20;98.70;;;;;;5125386;27;20051;-78
2021/08/10 02:26:53;;;;;;;4.25;2.00;;;16.10;98.70;;;;;;5122993;27;20126;-78
2021/08/10 02:29:21;;;;;;;3.60;1.70;;;16.00;99.10;;;;;;5132563;27;20048;-79
2021/08/10 02:31:50;;;;;;;3.70;1.60;;;15.90;99.50;;;;;;5125125;27;20127;-80
2021/08/10 02:34:17;;;;;;;3.58;1.70;;;15.80;99.70;;;;;;5126636;27;20130;-80
2021/08/10 02:36:46;;;;;;;3.45;1.60;;;15.80;99.80;;;;;;5122943;27;20086;-79
2021/08/10 02:39:14;;;;;;;3.58;1.80;;;15.80;99.80;;;;;;5117484;27;20122;-79
2021/08/10 02:41:43;;;;;;;4.85;1.90;;;15.80;99.70;;;;;;5121560;27;20039;-79
2021/08/10 02:44:11;;;;;;;4.32;1.90;;;15.70;99.60;;;;;;5126713;27;20071;-78
2021/08/10 02:46:39;;;;;;;3.72;1.73;;;15.70;99.60;;;;;;5128630;27;20051;-79
2021/08/10 02:49:09;;;;;;;4.07;1.83;;;15.70;99.70;;;;;;5119626;27;20127;-78
2021/08/10 02:51:37;;;;;;;3.03;1.60;;;15.60;99.80;;;;;;5130677;27;20047;-80
2021/08/10 02:54:06;;;;;;;3.63;1.67;;;15.70;99.70;;;;;;5124448;27;20130;-77
2021/08/10 02:56:38;;;;;;;5.35;1.90;;;15.70;99.80;;;;;;5120135;27;20459;-78
2021/08/10 02:59:10;;;;;;;4.22;1.65;;;15.70;99.70;;;;;;5127551;27;20457;-78
2021/08/10 03:01:46;;;;;;;3.50;1.52;;;15.70;99.60;;;;;;5117325;27;20040;-77
2021/08/10 03:04:13;;;;;;;3.60;1.77;;;15.70;99.70;;;;;;5124604;27;20536;-77
2021/08/10 03:06:41;;;;;;;3.55;1.75;;;15.70;99.70;;;;;;5125513;27;20118;-75
2021/08/10 03:09:10;;;;;;;4.22;1.67;;;15.60;99.70;;;;;;5123853;27;20130;-77
2021/08/10 03:11:41;;;;;;;3.50;1.60;;;15.70;99.70;;;;;;5126970;27;20122;-78
2021/08/10 03:14:12;;;;;;;3.50;1.73;;;15.70;99.60;;;;;;5124293;27;20125;-78
2021/08/10 03:16:42;;;;;;;4.18;1.73;;;15.70;99.70;;;;;;5118821;27;20055;-77
2021/08/10 03:19:10;;;;;;;3.10;1.55;;;15.70;99.60;;;;;;5123824;27;20138;-78
2021/08/10 03:21:38;;;;;;;4.55;1.70;;;15.70;99.40;;;;;;5124202;27;20492;-77
2021/08/10 03:24:10;;;;;;;3.67;1.52;;;15.70;99.30;;;;;;5116907;27;20457;-79
2021/08/10 03:26:38;;;;;;;3.90;1.70;;;15.70;99.30;;;;;;5107002;27;20123;-79
2021/08/10 03:29:06;;;;;;;7.03;1.92;;;15.70;99.30;;;;;;5122062;27;20108;-77
2021/08/10 03:31:37;;;;;;;5.75;2.60;;;15.70;99.40;;;;;;5114587;27;20126;-78
2021/08/10 03:34:05;;;;;;;3.95;1.67;;;15.70;99.50;;;;;;5129124;27;20564;-77
2021/08/10 03:36:33;;;;;;;3.63;1.77;;;15.70;99.40;;;;;;5117554;27;20551;-78
2021/08/10 03:39:00;;;;;;;4.30;1.77;;;15.70;99.20;;;;;;5117984;27;20122;-79
2021/08/10 03:41:30;;;;;;;3.63;1.85;;;15.70;99.40;;;;;;5106064;27;20663;-78
2021/08/10 03:43:57;;;;;;;3.35;1.70;;;15.60;99.00;;;;;;5131577;27;20111;-78
2021/08/10 03:46:25;;;;;;;5.75;2.20;;;15.50;99.00;;;;;;5119883;27;20035;-78
2021/08/10 03:48:52;;;;;;;4.05;2.05;;;15.40;99.20;;;;;;5125599;27;20131;-80
2021/08/10 03:51:21;;;;;;;4.53;1.80;;;15.30;99.40;;;;;;5123469;27;20127;-79
2021/08/10 03:53:48;;;;;;;3.47;1.70;;;15.20;99.60;;;;;;5118030;27;20067;-80
2021/08/10 03:56:17;;;;;;;4.32;1.80;;;15.10;99.80;;;;;;5121529;27;20054;-78
2021/08/10 03:58:48;;;;;;;3.30;1.60;;;15.10;99.90;;;;;;5123739;27;20161;-79
2021/08/10 04:01:17;;;;;;;3.05;1.60;;;15.10;99.90;;;;;;5129414;27;20043;-78
2021/08/10 04:03:45;;;;;;;3.20;1.75;;;15.00;99.90;;;;;;5120028;27;20050;-80
2021/08/10 04:06:13;;;;;;;3.95;1.75;;;14.90;99.90;;;;;;5123455;27;20206;-79
2021/08/10 04:08:40;;;;;;;4.28;2.00;;;14.80;99.90;;;;;;5125821;27;20039;-79
2021/08/10 04:11:08;;;;;;;3.47;1.80;;;14.80;99.90;;;;;;5125860;27;20067;-78
2021/08/10 04:13:36;;;;;;;6.03;1.83;;;14.70;99.90;;;;;;5130449;27;20126;-77
2021/08/10 04:16:07;;;;;;;6.25;2.13;;;14.70;99.90;;;;;;5124735;27;20492;-77
2021/08/10 04:18:37;;;;;;;6.55;2.22;;;14.70;99.90;;;;;;5102459;27;20051;-76
2021/08/10 04:21:04;;;;;;;4.03;1.83;;;14.60;99.90;;;;;;5125486;27;20044;-77
2021/08/10 04:23:31;;;;;;;3.42;2.00;;;14.70;99.90;;;;;;5130112;27;20043;-80
2021/08/10 04:25:58;;;;;;;3.58;1.75;;;14.70;99.90;;;;;;5141085;27;20067;-80
2021/08/10 04:28:26;;;;;;;3.45;2.00;;;14.70;99.90;;;;;;5136035;27;20173;-79
2021/08/10 04:30:53;;;;;;;3.80;1.90;;;14.70;99.90;;;;;;5136144;27;20055;-78
2021/08/10 04:33:21;;;;;;;3.38;1.90;;;14.70;99.90;;;;;;5128228;27;20669;-78
2021/08/10 04:35:48;;;;;;;4.50;2.00;;;14.70;99.90;;;;;;5134170;27;20126;-80
2021/08/10 04:38:15;;;;;;;3.67;2.03;;;14.70;99.90;;;;;;5134692;27;20138;-79
2021/08/10 04:40:42;;;;;;;3.55;1.77;;;14.60;99.90;;;;;;5134619;27;20127;-77
2021/08/10 04:43:09;;;;;;;5.18;1.67;;;14.70;99.90;;;;;;5134372;27;20139;-79
2021/08/10 04:45:36;;;;;;;4.22;2.15;;;14.70;99.90;;;;;;5134393;27;20057;-79
2021/08/10 04:48:04;;;;;;;5.00;2.05;;;14.70;99.90;;;;;;5135912;27;20130;-78
2021/08/10 04:50:33;;;;;;;3.58;1.90;;;14.70;99.90;;;;;;5139882;27;20075;-80
2021/08/10 04:53:00;;;;;;;4.82;2.00;;;14.70;99.90;;;;;;5138927;27;20559;-77
2021/08/10 04:55:27;;;;;;;4.05;1.90;;;14.60;99.90;;;;;;5139675;27;20074;-78
2021/08/10 04:57:54;;;;;;;3.60;2.03;;;14.60;99.90;;;;;;5135372;27;20118;-79
2021/08/10 05:00:21;;;;;;;4.75;2.38;;;14.60;99.90;;;;;;5136494;27;20111;-78
2021/08/10 05:02:48;;;;;;;5.40;2.00;;;14.70;99.90;;;;;;5140099;27;20107;-76
2021/08/10 05:05:15;;;;;;;4.15;1.83;;;14.70;99.90;;;;;;5139256;27;20134;-79
2021/08/10 05:07:43;;;;;;;4.60;2.20;;;14.70;99.90;;;;;;5136141;27;20125;-78
2021/08/10 05:10:12;;;;;;;5.18;2.17;;;14.80;99.90;;;;;;5134964;27;20054;-78
2021/08/10 05:12:39;;;;;;;3.50;2.00;;;14.90;99.90;;;;;;5134492;27;20134;-77
2021/08/10 05:15:07;;;;;;;6.03;1.90;;;14.90;99.90;;;;;;5134464;27;20460;-78
2021/08/10 05:17:35;;;;;;;5.70;2.00;;;14.90;99.90;;;;;;5134536;27;20078;-78
2021/08/10 05:20:02;;;;;;;4.10;2.00;;;15.00;99.90;;;;;;5134289;27;20047;-79
2021/08/10 05:22:29;;;;;;;5.03;2.05;;;15.10;99.90;;;;;;5134904;27;20138;-80
2021/08/10 05:24:57;;;;;;;4.20;2.08;;;15.10;99.90;;;;;;5134298;28;20500;-79
2021/08/10 05:27:24;;;;;;;4.47;1.80;;;15.20;99.90;;;;;;5133925;27;20062;-80
2021/08/10 05:29:51;;;;;;;4.47;2.00;;;15.20;99.90;;;;;;5133828;28;20130;-78
2021/08/10 05:32:18;;;;;;;4.07;2.08;;;15.30;99.90;;;;;;5134028;27;20047;-79
2021/08/10 05:34:45;;;;;;;4.93;2.17;;;15.30;99.90;;;;;;5133933;28;20127;-79
2021/08/10 05:37:12;;;;;;;4.45;1.95;;;15.30;99.90;;;;;;5133807;28;20130;-79
2021/08/10 05:39:39;;;;;;;3.75;1.83;;;15.30;99.90;;;;;;5133754;28;20131;-80
2021/08/10 05:42:08;;;;;;;3.78;2.00;;;15.40;99.90;;;;;;5133678;27;20138;-79
2021/08/10 05:44:35;;;;;;;4.35;2.35;;;15.40;99.90;;;;;;5133862;28;20047;-79
2021/08/10 05:47:02;;;;;;;4.07;2.15;;;15.50;99.90;;;;;;5133854;28;20126;-79
2021/08/10 05:49:29;;;;;;;4.53;2.20;;;15.60;99.90;;;;;;5133755;27;20130;-79
2021/08/10 05:51:58;;;;;;;5.75;2.60;;;15.60;99.90;;;;;;5133753;28;20081;-80
2021/08/10 05:54:25;;;;;;;3.80;2.13;;;15.60;99.90;;;;;;5133657;28;20058;-78
2021/08/10 05:56:52;;;;;;;4.50;2.00;;;15.70;99.90;;;;;;5136071;28;20043;-80
2021/08/10 05:59:20;;;;;;;4.20;2.10;;;15.80;99.90;;;;;;5143993;28;20086;-80
2021/08/10 06:01:47;;;;;;;4.55;2.33;;;15.70;99.90;;;;;;5144608;28;20078;-80
2021/08/10 06:04:14;;;;;;;5.43;2.10;;;15.80;99.90;;;;;;5135330;28;20135;-80
2021/08/10 06:06:41;;;;;;;4.20;1.95;;;15.80;99.90;;;;;;5133663;27;20150;-80
2021/08/10 06:09:09;;;;;;;4.78;2.30;;;15.80;99.90;;;;;;5142241;27;20074;-79
2021/08/10 06:11:36;;;;;;;3.92;2.22;;;15.80;99.90;;;;;;5141880;28;20047;-78
2021/08/10 06:14:03;;;;;;;4.05;2.00;;;15.90;99.90;;;;;;5115934;28;20047;-79
2021/08/10 06:16:33;;;;;;;3.90;2.30;;;16.00;99.90;;;;;;5099525;28;20123;-78
2021/08/10 06:19:01;;;;;;;3.88;1.90;;;16.00;99.90;;;;;;5093574;28;20048;-79
2021/08/10 06:21:29;;;;;;;4.07;2.20;;;16.10;99.90;;;;;;5092628;28;20051;-78
2021/08/10 06:23:56;;;;;;;3.63;1.90;;;16.10;99.90;;;;;;5092389;28;20144;-80
2021/08/10 06:26:23;;;;;;;4.22;1.90;;;16.20;99.90;;;;;;5093310;28;20469;-78
2021/08/10 06:28:50;;;;;;;4.88;1.83;;;16.30;99.90;;;;;;5096174;28;20044;-81
2021/08/10 06:31:17;;;;;;;4.80;2.15;;;16.40;99.90;;;;;;5096154;28;20047;-78
2021/08/10 06:33:46;;;;;;;3.30;1.83;;;16.50;99.90;;;;;;5096171;28;20153;-79
2021/08/10 06:36:13;;;;;;;5.28;2.10;;;16.50;99.90;;;;;;5095825;28;20138;-80
2021/08/10 06:38:40;;;;;;;4.70;2.00;;;16.60;99.90;;;;;;5096192;28;20140;-80
2021/08/10 06:41:07;;;;;;;3.72;1.80;;;16.60;99.90;;;;;;5095997;28;20138;-80
2021/08/10 06:43:34;;;;;;;4.28;1.95;;;16.70;99.90;;;;;;5099002;28;20115;-80
2021/08/10 06:46:01;;;;;;;5.95;2.08;;;16.80;99.90;;;;;;5106542;28;20071;-79
2021/08/10 06:48:28;;;;;;;4.47;1.92;;;16.90;99.70;;;;;;5105891;28;20078;-78
2021/08/10 06:50:57;;;;;;;3.33;1.77;;;17.00;99.60;;;;;;5096398;28;20477;-78
2021/08/10 06:53:24;;;;;;;4.07;1.95;;;17.00;99.70;;;;;;5095917;28;20123;-80
2021/08/10 06:55:51;;;;;;;3.70;2.03;;;17.10;99.30;;;;;;5095628;28;20451;-79
2021/08/10 06:58:18;;;;;;;3.38;1.88;;;17.20;99.20;;;;;;5095544;28;20500;-78
2021/08/10 07:00:45;;;;;;;5.10;1.90;;;17.30;99.10;;;;;;5095450;28;20131;-78
2021/08/10 07:03:13;;;;;;;4.82;2.10;;;17.40;99.00;;;;;;5095288;28;20119;-80
2021/08/10 07:05:40;;;;;;;6.75;2.03;;;17.50;98.70;;;;;;5095580;28;20079;-79
2021/08/10 07:08:08;;;;;;;5.72;2.72;;;17.60;98.40;;;;;;5095368;28;20123;-79
2021/08/10 07:10:35;;;;;;;4.88;2.40;;;17.60;98.30;;;;;;5095352;28;20044;-79
2021/08/10 07:13:02;;;;;;;4.75;1.73;;;17.70;98.10;;;;;;5095406;28;20151;-78
2021/08/10 07:15:29;;;;;;;4.30;1.92;;;17.80;97.90;;;;;;5095292;28;20078;-79
2021/08/10 07:17:56;;;;;;;3.60;1.50;;;17.90;98.00;;;;;;5095251;28;20138;-79
2021/08/10 07:20:24;;;;;;;4.25;1.70;;;18.00;98.00;;;;;;5094952;28;20166;-79
2021/08/10 07:22:51;;;;;;;4.13;1.80;;;18.10;97.80;;;;;;5095084;28;20076;-78
2021/08/10 07:25:20;;;;;;;4.25;1.90;;;18.20;97.70;;;;;;5094895;28;20079;-78
2021/08/10 07:27:47;;;;;;;3.80;1.90;;;18.30;97.50;;;;;;5095006;28;20055;-79
2021/08/10 07:30:15;;;;;;;5.15;1.95;;;18.50;97.20;;;;;;5094757;28;20564;-79
2021/08/10 07:32:42;;;;;;;3.58;1.70;;;18.50;97.00;;;;;;5095154;28;20442;-79
2021/08/10 07:35:10;;;;;;;3.55;1.63;;;18.60;97.00;;;;;;5094731;28;20552;-79
2021/08/10 07:37:40;;;;;;;4.63;1.77;;;18.70;96.80;;;;;;5094856;28;20127;-79
2021/08/10 07:40:10;;;;;;;6.13;2.00;;;18.80;96.30;;;;;;5094817;28;20134;-79
2021/08/10 07:42:39;;;;;;;4.32;1.75;;;18.80;95.80;;;;;;5094671;28;20071;-79
2021/08/10 07:45:07;;;;;;;4.68;1.90;;;18.80;96.00;;;;;;5095028;28;20127;-78
2021/08/10 07:47:35;;;;;;;4.45;1.95;;;18.90;96.10;;;;;;5094621;28;20127;-77
2021/08/10 07:50:02;;;;;;;4.65;1.83;;;18.90;96.20;;;;;;5094629;28;20135;-80
2021/08/10 07:52:29;;;;;;;5.95;2.17;;;19.00;96.30;;;;;;5094511;28;20139;-79
2021/08/10 07:54:56;;;;;;;4.32;1.80;;;19.10;95.60;;;;;;5094429;28;20139;-80
2021/08/10 07:57:23;;;;;;;3.92;1.80;;;19.10;95.80;;;;;;5094306;28;20450;-80
2021/08/10 07:59:52;;;;;;;4.60;2.08;;;19.20;95.60;;;;;;5094265;28;20557;-79
2021/08/10 08:02:19;;;;;;;4.28;1.60;;;19.20;95.70;;;;;;5094136;28;20582;-80
2021/08/10 08:04:46;;;;;;;3.25;1.50;;;19.30;95.90;;;;;;5094100;28;20158;-79
2021/08/10 08:07:13;;;;;;;3.45;1.50;;;19.40;95.80;;;;;;5094222;28;20131;-79
2021/08/10 08:09:40;;;;;;;3.33;1.60;;;19.50;96.00;;;;;;5094057;28;20482;-80
2021/08/10 08:12:07;;;;;;;3.92;1.60;;;19.70;95.60;;;;;;5094097;28;20143;-79
2021/08/10 08:14:35;;;;;;;4.05;1.77;;;19.80;95.50;;;;;;5093942;28;20090;-79
2021/08/10 08:17:04;;;;;;;3.50;1.60;;;19.90;95.40;;;;;;5093866;28;20088;-78
2021/08/10 08:19:31;;;;;;;4.85;1.73;;;20.00;95.20;;;;;;5093696;28;20051;-79
2021/08/10 08:21:58;;;;;;;5.80;2.03;;;20.20;95.10;;;;;;5094207;28;20139;-77
2021/08/10 08:24:25;;;;;;;4.22;2.00;;;20.30;94.90;;;;;;5093636;28;20047;-78
2021/08/10 08:26:52;;;;;;;3.72;1.75;;;20.40;94.60;;;;;;5094633;28;20127;-80
2021/08/10 08:29:19;;;;;;;4.00;1.98;;;20.50;94.40;;;;;;5099401;28;20384;-77
2021/08/10 08:31:46;;;;;;;4.35;1.83;;;20.60;94.10;;;;;;5095755;28;20469;-80
2021/08/10 08:34:14;;;;;;;5.18;1.80;;;20.70;93.90;;;;;;5094096;28;20469;-79
2021/08/10 08:36:42;;;;;;;4.18;1.70;;;20.70;93.90;;;;;;5094037;28;20048;-78
2021/08/10 08:39:09;;;;;;;5.13;1.90;;;20.80;93.60;;;;;;5094020;28;20486;-79
2021/08/10 08:41:36;;;;;;;3.90;1.70;;;20.90;93.40;;;;;;5093980;28;20048;-80
2021/08/10 08:44:04;;;;;;;3.67;1.80;;;20.90;93.40;;;;;;5093587;28;20134;-80
2021/08/10 08:46:32;;;;;;;4.70;1.80;;;21.00;93.20;;;;;;5093609;28;20044;-78
2021/08/10 08:48:59;;;;;;;3.92;1.70;;;21.10;93.10;;;;;;5093037;28;20126;-80
2021/08/10 08:51:29;;;;;;;3.80;1.52;;;21.20;92.20;;;;;;5093398;28;20048;-79
2021/08/10 08:53:57;;;;;;;4.65;1.70;;;21.20;92.00;;;;;;5093523;28;20040;-79
2021/08/10 08:56:25;;;;;;;5.18;1.70;;;21.30;91.40;;;;;;5093410;28;20142;-79
2021/08/10 08:58:53;;;;;;;3.55;1.63;;;21.30;91.20;;;;;;5093308;28;20097;-78
2021/08/10 09:01:21;;;;;;;4.40;1.65;;;21.40;90.90;;;;;;5094819;28;20051;-79
2021/08/10 09:03:48;;;;;;;2.72;1.23;;;21.50;91.00;;;;;;5093159;28;20537;-79
2021/08/10 09:06:15;;;;;;;4.28;1.55;;;21.50;91.00;;;;;;5093073;28;20128;-80
2021/08/10 09:08:45;;;;;;;3.50;1.40;;;21.50;90.60;;;;;;5093345;28;20127;-78
2021/08/10 09:11:18;;;;;;;4.30;1.70;;;21.60;90.20;;;;;;5092401;28;20055;-78
2021/08/10 09:13:58;;;;;;;4.70;1.70;;;21.70;90.00;;;;;;5093160;28;20151;-79
2021/08/10 09:16:26;;;;;;;4.50;1.75;;;21.70;90.10;;;;;;5075101;28;20127;-78
2021/08/10 09:18:53;;;;;;;3.45;1.50;;;21.80;89.80;;;;;;5092765;28;20084;-77
2021/08/10 09:21:22;;;;;;;3.53;1.38;;;21.90;89.90;;;;;;5093155;28;20127;-78
2021/08/10 09:23:55;;;;;;;4.18;1.55;;;22.00;90.10;;;;;;5092908;28;20132;-78
2021/08/10 09:26:25;;;;;;;3.72;1.80;;;22.10;88.50;;;;;;5093090;28;20081;-78
2021/08/10 09:29:00;;;;;;;4.25;1.77;;;22.10;87.80;;;;;;5092980;28;20553;-79
2021/08/10 09:31:39;;;;;;;4.22;1.85;;;22.20;86.30;;;;;;5093210;28;20135;-79
2021/08/10 09:34:09;;;;;;;4.85;1.95;;;22.10;86.60;;;;;;5093046;28;20055;-78
2021/08/10 09:36:37;;;;;;;4.32;1.58;;;22.10;86.70;;;;;;5093061;28;20130;-78
2021/08/10 09:39:05;;;;;;;5.07;1.70;;;22.20;87.10;;;;;;5094601;28;20071;-77
2021/08/10 09:41:33;;;;;;;3.72;1.50;;;22.30;85.20;;;;;;5104252;28;20765;-77
2021/08/10 09:44:13;;;;;;;4.38;1.90;;;22.30;85.10;;;;;;5096602;28;20097;-78
2021/08/10 09:46:48;;;;;;;3.00;1.60;;;22.30;84.50;;;;;;5092724;28;20576;-80
2021/08/10 09:49:17;;;;;;;4.03;1.80;;;22.40;84.90;;;;;;5092803;28;20382;-79
2021/08/10 09:51:48;;;;;;;3.63;1.60;;;22.40;85.00;;;;;;5092753;28;20462;-78
2021/08/10 09:54:18;;;;;;;4.45;1.65;;;22.50;84.20;;;;;;5092693;28;20075;-80
2021/08/10 09:56:50;;;;;;;4.78;1.80;;;22.50;84.70;;;;;;5095425;28;20138;-80
2021/08/10 09:59:19;;;;;;;3.30;1.50;;;22.60;85.70;;;;;;5112076;28;20130;-79
2021/08/10 10:01:48;;;;;;;4.45;1.70;;;22.60;87.20;;;;;;5114107;28;20109;-80
2021/08/10 10:04:22;;;;;;;4.13;1.80;;;22.70;85.80;;;;;;5117017;28;20130;-85
2021/08/10 10:06:51;;;;;;;3.50;1.70;;;22.80;86.70;;;;;;5116579;28;20542;-78
2021/08/10 10:09:21;;;;;;;5.30;2.10;;;22.80;85.80;;;;;;5123600;28;20075;-78
2021/08/10 10:11:53;;;;;;;4.63;1.77;;;22.90;85.50;;;;;;5107302;28;20040;-78
2021/08/10 10:14:20;;;;;;;3.80;1.50;;;22.90;86.30;;;;;;5114292;28;20119;-79
2021/08/10 10:16:51;;;;;;;3.28;1.73;;;23.00;85.70;;;;;;5119246;28;20237;-78
2021/08/10 10:19:21;;;;;;;3.90;1.77;;;23.10;84.50;;;;;;5101266;28;20131;-78
2021/08/10 10:21:50;;;;;;;3.50;1.52;;;23.10;84.30;;;;;;5114159;28;20047;-79
2021/08/10 10:24:21;;;;;;;3.83;1.48;;;23.10;84.30;;;;;;5114091;28;20047;-79
2021/08/10 10:26:54;;;;;;;5.50;2.20;;;23.20;84.10;;;;;;5114717;28;20473;-78
2021/08/10 10:29:23;;;;;;;3.30;1.67;;;23.30;83.30;;;;;;5114948;28;20040;-79
2021/08/10 10:31:50;;;;;;;6.20;1.98;;;23.30;82.90;;;;;;5096162;28;20052;-76
2021/08/10 10:34:17;;;;;;;4.00;1.63;;;23.40;82.40;;;;;;5113765;28;20127;-79
2021/08/10 10:36:47;;;;;;;4.90;1.75;;;23.50;82.70;;;;;;5097005;28;20069;-79
2021/08/10 10:39:24;;;;;;;4.10;1.60;;;23.50;82.70;;;;;;5114600;28;20497;-79
2021/08/10 10:41:54;;;;;;;3.75;1.65;;;23.60;83.40;;;;;;5114515;28;20127;-80
2021/08/10 10:44:38;;;;;;;4.13;1.60;;;23.70;81.70;;;;;;5114307;28;20052;-79
2021/08/10 10:47:41;;;;;;;3.78;1.50;;;23.70;80.90;;;;;;5113920;28;20042;-79
2021/08/10 10:50:18;;;;;;;3.97;1.55;;;23.80;80.20;;;;;;5113909;28;20043;-77
2021/08/10 10:53:05;;;;;;;4.45;1.80;;;23.80;80.40;;;;;;5114362;28;20054;-78
2021/08/10 10:55:43;;;;;;;4.22;1.63;;;23.80;78.80;;;;;;5116169;28;20130;-78
2021/08/10 10:58:31;;;;;;;3.85;1.48;;;23.70;80.20;;;;;;5116007;28;20051;-77
2021/08/10 11:01:16;;;;;;;4.25;1.85;;;23.80;80.00;;;;;;5117176;28;20101;-78
2021/08/10 11:04:12;;;;;;;2.90;1.60;;;23.90;80.40;;;;;;5115235;28;20047;-77
2021/08/10 11:06:45;;;;;;;4.15;1.45;;;24.00;81.00;;;;;;5113831;28;20039;-79
2021/08/10 11:09:59;;;;;;;3.67;1.48;;;24.10;80.40;;;;;;5128328;27;20047;-77
2021/08/10 11:12:47;;;;;;;3.97;1.98;;;24.10;80.50;;;;;;5100325;28;20052;-76
2021/08/10 11:15:19;;;;;;;3.00;1.50;;;24.30;78.70;;;;;;5115494;28;20058;-77
2021/08/10 11:18:21;;;;;;;3.55;1.60;;;24.30;78.20;;;;;;5114847;28;20083;-79
2021/08/10 11:20:51;;;;;;;4.78;1.60;;;24.30;78.40;;;;;;5115358;28;20378;-78
2021/08/10 11:23:36;;;;;;;6.03;2.05;;;24.40;78.30;;;;;;5114081;28;20131;-79
2021/08/10 11:26:42;;;;;;;3.70;1.70;;;24.40;78.10;;;;;;5095644;28;20130;-79
2021/08/10 11:29:12;;;;;;;3.75;1.80;;;24.50;78.50;;;;;;5112542;28;20462;-79
2021/08/10 11:31:52;;;;;;;4.55;1.70;;;24.60;77.00;;;;;;5112723;28;20051;-78
2021/08/10 11:34:41;;;;;;;3.35;1.60;;;24.60;76.60;;;;;;5112858;28;20050;-80
2021/08/10 11:37:26;;;;;;;4.45;1.65;;;24.60;75.10;;;;;;5112038;28;20562;-79
2021/08/10 11:40:09;;;;;;;5.50;2.10;;;24.50;77.10;;;;;;5093090;28;20762;-79
2021/08/10 11:42:36;;;;;;;3.63;1.70;;;24.50;76.20;;;;;;5110535;28;20124;-79
2021/08/10 11:45:07;;;;;;;3.97;1.73;;;24.50;76.60;;;;;;5113403;28;20053;-79
2021/08/10 11:47:34;;;;;;;4.10;1.98;;;24.60;75.20;;;;;;5112421;28;20134;-77
2021/08/10 11:50:01;;;;;;;3.80;1.60;;;24.60;75.10;;;;;;5113038;28;20131;-77
2021/08/10 11:52:46;;;;;;;4.10;2.10;;;24.70;75.20;;;;;;5112936;28;20075;-76
2021/08/10 11:55:13;;;;;;;4.15;1.83;;;24.70;74.40;;;;;;5113876;28;20112;-79
2021/08/10 11:58:00;;;;;;;4.57;1.85;;;24.80;74.00;;;;;;5113076;28;20133;-79
2021/08/10 12:00:31;;;;;;;5.25;1.95;;;24.80;73.30;;;;;;5112306;28;20055;-79
2021/08/10 12:02:59;;;;;;;4.65;1.90;;;24.90;73.30;;;;;;5112064;28;20046;-78
2021/08/10 12:05:26;;;;;;;6.25;1.90;;;25.00;73.80;;;;;;5112088;28;20549;-79
2021/08/10 12:07:56;;;;;;;4.25;1.90;;;25.10;71.30;;;;;;5112375;28;20199;-79
2021/08/10 12:10:33;;;;;;;3.70;2.00;;;25.20;70.60;;;;;;5126769;27;20841;-79
2021/08/10 12:13:06;;;;;;;3.60;1.70;;;25.20;70.90;;;;;;5113197;28;20044;-79
2021/08/10 12:15:46;;;;;;;4.18;1.85;;;25.30;70.70;;;;;;5112538;28;20105;-80
2021/08/10 12:18:16;;;;;;;3.60;1.65;;;25.40;71.20;;;;;;5112277;28;20052;-80
2021/08/10 12:20:55;;;;;;;3.83;1.70;;;25.60;72.30;;;;;;5112460;28;20078;-78
2021/08/10 12:23:23;;;;;;;3.25;1.67;;;25.70;71.00;;;;;;5111900;28;20054;-79
2021/08/10 12:25:51;;;;;;;3.83;1.50;;;25.80;69.10;;;;;;5111589;28;20500;-79
2021/08/10 12:28:18;;;;;;;4.13;1.70;;;25.80;68.80;;;;;;5111611;28;20167;-76
2021/08/10 12:30:47;;;;;;;3.85;1.40;;;25.90;69.10;;;;;;5125005;28;20055;-78
2021/08/10 12:33:17;;;;;;;5.10;1.70;;;26.10;69.30;;;;;;5123138;28;20063;-75
2021/08/10 12:35:58;;;;;;;3.55;1.58;;;26.30;68.00;;;;;;5112279;28;20134;-76
2021/08/10 12:38:26;;;;;;;5.10;1.80;;;26.50;67.60;;;;;;5112113;28;20479;-80
2021/08/10 12:40:54;;;;;;;3.10;1.45;;;26.60;66.00;;;;;;5111940;28;20067;-78
2021/08/10 12:43:22;;;;;;;3.83;1.60;;;26.80;66.00;;;;;;5111420;28;20051;-79
2021/08/10 12:45:51;;;;;;;3.63;1.65;;;27.00;66.40;;;;;;5111404;28;20130;-79
2021/08/10 12:48:33;;;;;;;3.75;1.88;;;27.10;65.50;;;;;;5111566;28;20108;-80
2021/08/10 12:51:03;;;;;;;3.88;1.77;;;27.30;65.50;;;;;;5111626;28;20055;-79
2021/08/10 12:53:34;;;;;;;4.63;1.77;;;27.30;65.50;;;;;;5112582;28;20051;-78
2021/08/10 12:56:02;;;;;;;2.75;1.45;;;27.40;65.00;;;;;;5111705;28;20134;-79
2021/08/10 12:58:31;;;;;;;3.95;1.38;;;27.50;64.70;;;;;;5111646;28;20047;-78
2021/08/10 13:01:06;;;;;;;3.28;1.45;;;27.70;65.30;;;;;;5111431;28;20514;-78
2021/08/10 13:03:34;;;;;;;4.28;1.65;;;27.90;65.30;;;;;;5112218;28;20047;-79